Aérodrome :
LOGIN :

S'inscrire | Disclaimer

   EN    FR    IT 

 










Légende :    VFR   VFR Marginal   IFR   IFR Intensif   IFR Très Intensif
Visi : 
Plafond : 
>= 8 km
>= 3000ft
5 à 8 km
1000 à 3000 ft
1500m à 5 km
500 à 1000 ft
800 à 1500m
200 à 500 ft
< 800m
< 200 ft
Symboles :   Orages  Brouillard  Fortes neiges  Fortes précipitations  Vent > 20 kt
SIGMETs :   Divers  Orages  Givrage  Turbulence  Onde Orograph.  Cendres Volcan.






- Altitude de l'aérodrome : 90 ft
- Code IATA : NTE


LFRS - Nantes

DERNIER METAR :
  • 061800Z AUTO 26013KT 230V300 CAVOK 16/05 Q1007 TEMPO 27015G25KT

METARs EXPIRÉS :
  • 061730Z AUTO 26014KT CAVOK 17/06 Q1007 TEMPO 27015G25KT
  • 061700Z AUTO 26012KT CAVOK 18/05 Q1007 TEMPO 27015G25KT
  • 061630Z AUTO 26011KT 230V300 CAVOK 18/04 Q1007 TEMPO 27015G25KT
  • 061600Z AUTO 27014KT 240V310 CAVOK 18/04 Q1007 TEMPO 27015G25KT
  • 061530Z AUTO 26013KT CAVOK 18/04 Q1007 TEMPO 27015G25KT

TAF TAF LFRS
Valide du 06 à 18h jusqu'au 08 à 00h UTC


061700Z 0618/0724 27012KT CAVOK
TEMPO 0618/0619 27015G25KT
BECMG 0702/0704 VRB02KT
PROB30
TEMPO 0709/0712 SHRA SCT030TCU
BECMG 0712/0714 26012KT
PROB30
TEMPO 0714/0718 4500 SHRA SCT030CB BKN045TCU
BECMG 0718/0720 VRB02KT
ATIS : +33 2 40 05 12 74



MET'MAP, la Météo Aéronautique d'un coup d'oeil ! - Copyright ORBIFLY Décembre 2007 - Disclaimer

ORBIFLY MET'MAP TEAM :

Programmation & Développement : Alexandra Zaïnal
Sur une idée originale de : Baudouin d'Aumeries
Assistance à la programmation : Marc-Olivier Méhu
Soutien technique & logistique : Manuel Goepfert

Contact : metmap@orbifly.com




SOURCES & CREDITS :

   NOAA